sensor_id;sensor_type;location;lat;lon;timestamp;pressure;altitude;pressure_sealevel;temperature;humidity
29215;BME280;16252;49.816;7.964;2023-07-31T00:00:11;99833.88;;;22.46;45.46
29215;BME280;16252;49.816;7.964;2023-07-31T00:02:36;99845.03;;;22.51;44.78
29215;BME280;16252;49.816;7.964;2023-07-31T00:05:02;99846.13;;;22.57;45.08
29215;BME280;16252;49.816;7.964;2023-07-31T00:07:27;99838.78;;;22.57;45.07
29215;BME280;16252;49.816;7.964;2023-07-31T00:09:52;99839.63;;;22.58;44.89
29215;BME280;16252;49.816;7.964;2023-07-31T00:12:19;99834.97;;;22.52;45.07
29215;BME280;16252;49.816;7.964;2023-07-31T00:14:44;99833.91;;;22.53;45.24
29215;BME280;16252;49.816;7.964;2023-07-31T00:17:09;99834.31;;;22.49;44.96
29215;BME280;16252;49.816;7.964;2023-07-31T00:19:35;99843.34;;;22.50;44.90
29215;BME280;16252;49.816;7.964;2023-07-31T00:22:00;99842.91;;;22.46;44.82
29215;BME280;16252;49.816;7.964;2023-07-31T00:24:25;99840.81;;;22.48;45.21
29215;BME280;16252;49.816;7.964;2023-07-31T00:26:51;99852.34;;;22.50;45.25
29215;BME280;16252;49.816;7.964;2023-07-31T00:29:16;99845.63;;;22.46;45.23
29215;BME280;16252;49.816;7.964;2023-07-31T00:31:41;99835.31;;;22.42;45.17
29215;BME280;16252;49.816;7.964;2023-07-31T00:34:06;99849.63;;;22.50;45.29
29215;BME280;16252;49.816;7.964;2023-07-31T00:36:32;99830.63;;;22.36;45.37
29215;BME280;16252;49.816;7.964;2023-07-31T00:38:57;99842.06;;;22.46;45.60
29215;BME280;16252;49.816;7.964;2023-07-31T00:41:22;99829.63;;;22.37;45.31
29215;BME280;16252;49.816;7.964;2023-07-31T00:43:47;99830.69;;;22.42;45.40
29215;BME280;16252;49.816;7.964;2023-07-31T00:46:13;99838.69;;;22.44;45.59
29215;BME280;16252;49.816;7.964;2023-07-31T00:48:39;99846.06;;;22.50;45.75
29215;BME280;16252;49.816;7.964;2023-07-31T00:51:04;99825.66;;;22.39;45.69
29215;BME280;16252;49.816;7.964;2023-07-31T00:53:29;99842.09;;;22.53;45.57
29215;BME280;16252;49.816;7.964;2023-07-31T00:55:55;99845.03;;;22.51;45.74
29215;BME280;16252;49.816;7.964;2023-07-31T00:58:20;99824.81;;;22.39;45.62
29215;BME280;16252;49.816;7.964;2023-07-31T01:00:46;99849.25;;;22.54;45.33
29215;BME280;16252;49.816;7.964;2023-07-31T01:03:11;99832.41;;;22.43;45.61
29215;BME280;16252;49.816;7.964;2023-07-31T01:08:42;99854.94;;;22.59;45.70
29215;BME280;16252;49.816;7.964;2023-07-31T01:11:19;99831.75;;;22.41;45.18
29215;BME280;16252;49.816;7.964;2023-07-31T01:13:46;99851.91;;;22.47;45.54
29215;BME280;16252;49.816;7.964;2023-07-31T01:16:12;99846.66;;;22.45;45.74
29215;BME280;16252;49.816;7.964;2023-07-31T01:18:37;99844.13;;;22.44;45.67
29215;BME280;16252;49.816;7.964;2023-07-31T01:21:28;99835.16;;;22.50;45.77
29215;BME280;16252;49.816;7.964;2023-07-31T01:24:25;99847.78;;;22.58;45.57
29215;BME280;16252;49.816;7.964;2023-07-31T01:26:57;99846.72;;;22.52;46.11
29215;BME280;16252;49.816;7.964;2023-07-31T01:29:29;99821.69;;;22.42;45.74
29215;BME280;16252;49.816;7.964;2023-07-31T01:32:01;99818.13;;;22.41;45.67
29215;BME280;16252;49.816;7.964;2023-07-31T01:34:27;99836.53;;;22.67;45.38
29215;BME280;16252;49.816;7.964;2023-07-31T01:36:53;99818.13;;;22.41;45.83
29215;BME280;16252;49.816;7.964;2023-07-31T01:39:20;99828.81;;;22.43;45.99
29215;BME280;16252;49.816;7.964;2023-07-31T01:41:45;99809.69;;;22.36;46.16
29215;BME280;16252;49.816;7.964;2023-07-31T01:44:10;99821.69;;;22.42;45.71
29215;BME280;16252;49.816;7.964;2023-07-31T01:46:36;99802.94;;;22.32;45.88
29215;BME280;16252;49.816;7.964;2023-07-31T01:49:01;99817.88;;;22.36;45.94
29215;BME280;16252;49.816;7.964;2023-07-31T01:51:26;99817.88;;;22.36;45.77
29215;BME280;16252;49.816;7.964;2023-07-31T01:53:51;99798.09;;;22.27;46.11
29215;BME280;16252;49.816;7.964;2023-07-31T01:56:17;99806.97;;;22.36;46.19
29215;BME280;16252;49.816;7.964;2023-07-31T01:58:42;99781.03;;;22.19;46.02
29215;BME280;16252;49.816;7.964;2023-07-31T02:01:07;99804.38;;;22.28;46.07
29215;BME280;16252;49.816;7.964;2023-07-31T02:03:32;99804.13;;;22.23;46.04
29215;BME280;16252;49.816;7.964;2023-07-31T02:05:58;99804.78;;;22.25;46.28
29215;BME280;16252;49.816;7.964;2023-07-31T02:08:23;99786.22;;;22.14;46.07
29215;BME280;16252;49.816;7.964;2023-07-31T02:10:48;99785.16;;;22.15;46.55
29215;BME280;16252;49.816;7.964;2023-07-31T02:13:14;99783.09;;;22.17;46.55
29215;BME280;16252;49.816;7.964;2023-07-31T02:15:39;99764.19;;;22.08;46.72
29215;BME280;16252;49.816;7.964;2023-07-31T02:18:04;99780.19;;;22.18;46.59
29215;BME280;16252;49.816;7.964;2023-07-31T02:20:29;99768.81;;;22.15;46.61
29215;BME280;16252;49.816;7.964;2023-07-31T02:22:55;99766.94;;;22.15;46.79
29215;BME280;16252;49.816;7.964;2023-07-31T02:25:20;99774.38;;;22.21;46.78
29215;BME280;16252;49.816;7.964;2023-07-31T02:27:45;99773.88;;;22.18;46.48
29215;BME280;16252;49.816;7.964;2023-07-31T02:30:11;99772.66;;;22.20;46.76
29215;BME280;16252;49.816;7.964;2023-07-31T02:32:36;99767.16;;;22.14;46.53
29215;BME280;16252;49.816;7.964;2023-07-31T02:35:01;99780.38;;;22.17;46.60
29215;BME280;16252;49.816;7.964;2023-07-31T02:37:27;99765.19;;;22.07;46.79
29215;BME280;16252;49.816;7.964;2023-07-31T02:39:54;99773.38;;;22.07;46.84
29215;BME280;16252;49.816;7.964;2023-07-31T02:42:19;99781.44;;;22.16;46.71
29215;BME280;16252;49.816;7.964;2023-07-31T02:44:44;99771.06;;;22.04;46.94
29215;BME280;16252;49.816;7.964;2023-07-31T02:47:09;99764.13;;;22.02;46.83
29215;BME280;16252;49.816;7.964;2023-07-31T02:49:35;99758.88;;;22.00;46.84
29215;BME280;16252;49.816;7.964;2023-07-31T02:52:00;99782.59;;;22.06;46.68
29215;BME280;16252;49.816;7.964;2023-07-31T02:54:25;99788.22;;;22.05;46.92
29215;BME280;16252;49.816;7.964;2023-07-31T02:56:50;99790.13;;;22.04;46.90
29215;BME280;16252;49.816;7.964;2023-07-31T02:59:16;99785.91;;;22.02;47.08
29215;BME280;16252;49.816;7.964;2023-07-31T03:01:41;99784.66;;;22.04;47.02
29215;BME280;16252;49.816;7.964;2023-07-31T03:04:07;99780.84;;;21.99;46.82
29215;BME280;16252;49.816;7.964;2023-07-31T03:06:32;99779.38;;;21.96;46.89
29215;BME280;16252;49.816;7.964;2023-07-31T03:08:57;99755.38;;;21.85;46.96
29215;BME280;16252;49.816;7.964;2023-07-31T03:11:23;99772.25;;;21.95;47.12
29215;BME280;16252;49.816;7.964;2023-07-31T03:13:48;99774.09;;;21.95;46.90
29215;BME280;16252;49.816;7.964;2023-07-31T03:16:13;99778.78;;;22.01;47.26
29215;BME280;16252;49.816;7.964;2023-07-31T03:18:38;99776.25;;;21.99;47.07
29215;BME280;16252;49.816;7.964;2023-07-31T03:21:04;99777.31;;;21.98;47.12
29215;BME280;16252;49.816;7.964;2023-07-31T03:23:29;99766.59;;;21.97;47.31
29215;BME280;16252;49.816;7.964;2023-07-31T03:25:59;99768.66;;;21.95;47.48
29215;BME280;16252;49.816;7.964;2023-07-31T03:28:24;99762.13;;;21.89;47.44
29215;BME280;16252;49.816;7.964;2023-07-31T03:30:50;99782.75;;;21.98;47.50
29215;BME280;16252;49.816;7.964;2023-07-31T03:33:15;99767.16;;;21.92;47.50
29215;BME280;16252;49.816;7.964;2023-07-31T03:35:41;99771.59;;;21.93;47.66
29215;BME280;16252;49.816;7.964;2023-07-31T03:38:06;99771.13;;;21.90;47.49
29215;BME280;16252;49.816;7.964;2023-07-31T03:40:31;99760.97;;;21.77;47.48
29215;BME280;16252;49.816;7.964;2023-07-31T03:42:56;99751.78;;;21.78;47.57
29215;BME280;16252;49.816;7.964;2023-07-31T03:45:22;99784.97;;;21.88;47.60
29215;BME280;16252;49.816;7.964;2023-07-31T03:47:47;99779.88;;;21.85;47.50
29215;BME280;16252;49.816;7.964;2023-07-31T03:50:12;99785.72;;;21.82;47.64
29215;BME280;16252;49.816;7.964;2023-07-31T03:52:37;99761.38;;;21.74;47.59
29215;BME280;16252;49.816;7.964;2023-07-31T03:55:03;99782.34;;;21.80;48.04
29215;BME280;16252;49.816;7.964;2023-07-31T03:57:28;99777.53;;;21.75;47.80
29215;BME280;16252;49.816;7.964;2023-07-31T03:59:53;99760.28;;;21.68;47.96
29215;BME280;16252;49.816;7.964;2023-07-31T04:02:19;99772.91;;;21.76;47.94
29215;BME280;16252;49.816;7.964;2023-07-31T04:04:44;99762.78;;;21.70;47.98
29215;BME280;16252;49.816;7.964;2023-07-31T04:07:09;99749.13;;;21.63;47.99
29215;BME280;16252;49.816;7.964;2023-07-31T04:09:34;99756.06;;;21.66;47.79
29215;BME280;16252;49.816;7.964;2023-07-31T04:12:00;99763.38;;;21.65;48.11
29215;BME280;16252;49.816;7.964;2023-07-31T04:14:25;99748.66;;;21.59;48.31
29215;BME280;16252;49.816;7.964;2023-07-31T04:16:50;99752.44;;;21.58;48.28
29215;BME280;16252;49.816;7.964;2023-07-31T04:19:16;99757.94;;;21.65;48.02
29215;BME280;16252;49.816;7.964;2023-07-31T04:21:42;99763.00;;;21.68;48.10
29215;BME280;16252;49.816;7.964;2023-07-31T04:24:07;99757.28;;;21.63;48.39
29215;BME280;16252;49.816;7.964;2023-07-31T04:26:32;99740.47;;;21.59;48.49
29215;BME280;16252;49.816;7.964;2023-07-31T04:28:58;99744.91;;;21.60;48.16
29215;BME280;16252;49.816;7.964;2023-07-31T04:31:23;99746.19;;;21.64;48.09
29215;BME280;16252;49.816;7.964;2023-07-31T04:33:48;99743.84;;;21.61;48.40
29215;BME280;16252;49.816;7.964;2023-07-31T04:36:13;99734.41;;;21.57;48.39
29215;BME280;16252;49.816;7.964;2023-07-31T04:38:39;99720.66;;;21.44;48.16
29215;BME280;16252;49.816;7.964;2023-07-31T04:41:07;99735.41;;;21.50;48.34
29215;BME280;16252;49.816;7.964;2023-07-31T04:43:32;99754.31;;;21.58;48.22
29215;BME280;16252;49.816;7.964;2023-07-31T04:45:57;99682.22;;;21.11;48.55
29215;BME280;16252;49.816;7.964;2023-07-31T04:48:23;99655.91;;;20.96;48.49
29215;BME280;16252;49.816;7.964;2023-07-31T04:50:48;99756.78;;;21.53;48.66
29215;BME280;16252;49.816;7.964;2023-07-31T04:53:14;99754.63;;;21.48;48.81
29215;BME280;16252;49.816;7.964;2023-07-31T04:55:39;99683.16;;;21.03;48.36
29215;BME280;16252;49.816;7.964;2023-07-31T04:58:05;99765.34;;;21.50;48.66
29215;BME280;16252;49.816;7.964;2023-07-31T05:00:30;99770.97;;;21.48;48.87
29215;BME280;16252;49.816;7.964;2023-07-31T05:02:55;99742.34;;;21.37;48.73
29215;BME280;16252;49.816;7.964;2023-07-31T05:05:21;99745.16;;;21.44;48.81
29215;BME280;16252;49.816;7.964;2023-07-31T05:07:46;99719.84;;;21.29;48.87
29215;BME280;16252;49.816;7.964;2023-07-31T05:10:11;99737.00;;;21.29;48.81
29215;BME280;16252;49.816;7.964;2023-07-31T05:12:37;99617.69;;;20.62;48.90
29215;BME280;16252;49.816;7.964;2023-07-31T05:15:02;99747.22;;;21.42;48.96
29215;BME280;16252;49.816;7.964;2023-07-31T05:17:28;99754.19;;;21.45;49.09
29215;BME280;16252;49.816;7.964;2023-07-31T05:19:53;99699.34;;;21.11;49.17
29215;BME280;16252;49.816;7.964;2023-07-31T05:22:18;99736.25;;;21.35;48.93
29215;BME280;16252;49.816;7.964;2023-07-31T05:24:44;99673.25;;;20.95;49.19
29215;BME280;16252;49.816;7.964;2023-07-31T05:27:09;99636.75;;;20.68;48.92
29215;BME280;16252;49.816;7.964;2023-07-31T05:29:35;99677.03;;;20.94;49.00
29215;BME280;16252;49.816;7.964;2023-07-31T05:32:00;99752.31;;;21.45;49.31
29215;BME280;16252;49.816;7.964;2023-07-31T05:34:25;99650.97;;;20.85;49.04
29215;BME280;16252;49.816;7.964;2023-07-31T05:36:50;99684.22;;;21.02;49.17
29215;BME280;16252;49.816;7.964;2023-07-31T05:39:16;99645.09;;;20.82;49.50
29215;BME280;16252;49.816;7.964;2023-07-31T05:41:41;99745.03;;;21.52;49.23
29215;BME280;16252;49.816;7.964;2023-07-31T05:44:06;99724.63;;;21.41;49.06
29215;BME280;16252;49.816;7.964;2023-07-31T05:46:32;99729.34;;;21.54;49.21
29215;BME280;16252;49.816;7.964;2023-07-31T05:48:58;99719.25;;;21.48;49.35
29215;BME280;16252;49.816;7.964;2023-07-31T05:51:25;99733.81;;;21.62;49.50
29215;BME280;16252;49.816;7.964;2023-07-31T05:53:51;99707.56;;;21.54;49.62
29215;BME280;16252;49.816;7.964;2023-07-31T05:56:16;99691.22;;;21.54;49.25
29215;BME280;16252;49.816;7.964;2023-07-31T05:58:41;99717.78;;;21.74;49.45
29215;BME280;16252;49.816;7.964;2023-07-31T06:01:06;99642.00;;;21.28;49.51
29215;BME280;16252;49.816;7.964;2023-07-31T06:03:32;99607.94;;;21.10;49.28
29215;BME280;16252;49.816;7.964;2023-07-31T06:05:57;99649.47;;;21.40;49.15
29215;BME280;16252;49.816;7.964;2023-07-31T06:08:22;99634.09;;;21.33;49.34
29215;BME280;16252;49.816;7.964;2023-07-31T06:10:47;99593.53;;;21.16;49.51
29215;BME280;16252;49.816;7.964;2023-07-31T06:13:13;99714.41;;;21.93;49.43
29215;BME280;16252;49.816;7.964;2023-07-31T06:15:38;99715.91;;;22.02;49.23
29215;BME280;16252;49.816;7.964;2023-07-31T06:18:03;99645.66;;;21.63;49.31
29215;BME280;16252;49.816;7.964;2023-07-31T06:20:31;99711.13;;;22.04;49.44
29215;BME280;16252;49.816;7.964;2023-07-31T06:22:56;99714.59;;;22.20;49.24
29215;BME280;16252;49.816;7.964;2023-07-31T06:25:21;99732.25;;;22.24;49.21
29215;BME280;16252;49.816;7.964;2023-07-31T06:27:46;99607.91;;;21.53;49.07
29215;BME280;16252;49.816;7.964;2023-07-31T06:30:12;99629.38;;;21.70;49.23
29215;BME280;16252;49.816;7.964;2023-07-31T06:32:37;99713.59;;;22.21;49.02
29215;BME280;16252;49.816;7.964;2023-07-31T06:35:03;99727.28;;;22.34;48.99
29215;BME280;16252;49.816;7.964;2023-07-31T06:37:28;99702.91;;;22.26;49.02
29215;BME280;16252;49.816;7.964;2023-07-31T06:39:53;99709.63;;;22.30;48.89
29215;BME280;16252;49.816;7.964;2023-07-31T06:42:18;99642.53;;;21.94;48.89
29215;BME280;16252;49.816;7.964;2023-07-31T06:44:44;99663.63;;;22.14;48.48
29215;BME280;16252;49.816;7.964;2023-07-31T06:47:09;99705.06;;;22.37;48.86
29215;BME280;16252;49.816;7.964;2023-07-31T06:49:34;99661.91;;;22.13;48.85
29215;BME280;16252;49.816;7.964;2023-07-31T06:51:59;99656.56;;;22.19;48.53
29215;BME280;16252;49.816;7.964;2023-07-31T06:54:25;99673.56;;;22.28;48.70
29215;BME280;16252;49.816;7.964;2023-07-31T06:56:50;99717.84;;;22.71;48.67
29215;BME280;16252;49.816;7.964;2023-07-31T06:59:15;99723.72;;;22.75;48.56
29215;BME280;16252;49.816;7.964;2023-07-31T07:01:40;99736.75;;;22.80;48.51
29215;BME280;16252;49.816;7.964;2023-07-31T07:04:06;99721.22;;;22.80;48.58
29215;BME280;16252;49.816;7.964;2023-07-31T07:06:31;99646.41;;;22.41;48.52
29215;BME280;16252;49.816;7.964;2023-07-31T07:08:56;99707.59;;;22.80;48.39
29215;BME280;16252;49.816;7.964;2023-07-31T07:11:21;99642.66;;;22.49;48.51
29215;BME280;16252;49.816;7.964;2023-07-31T07:13:47;99592.63;;;22.22;48.64
29215;BME280;16252;49.816;7.964;2023-07-31T07:16:12;99590.78;;;22.36;48.34
29215;BME280;16252;49.816;7.964;2023-07-31T07:18:37;99679.97;;;22.97;48.67
29215;BME280;16252;49.816;7.964;2023-07-31T07:21:03;99702.94;;;23.22;48.97
29215;BME280;16252;49.816;7.964;2023-07-31T07:23:28;99650.16;;;22.95;48.64
29215;BME280;16252;49.816;7.964;2023-07-31T07:25:53;99688.84;;;23.32;48.77
29215;BME280;16252;49.816;7.964;2023-07-31T07:28:18;99594.38;;;22.98;48.17
29215;BME280;16252;49.816;7.964;2023-07-31T07:30:44;99647.94;;;23.39;48.26
29215;BME280;16252;49.816;7.964;2023-07-31T07:33:09;99662.22;;;23.61;48.38
29215;BME280;16252;49.816;7.964;2023-07-31T07:35:35;99671.28;;;23.81;48.10
29215;BME280;16252;49.816;7.964;2023-07-31T07:38:02;99575.06;;;23.26;48.05
29215;BME280;16252;49.816;7.964;2023-07-31T07:40:27;99574.44;;;23.30;47.85
29215;BME280;16252;49.816;7.964;2023-07-31T07:42:52;99570.88;;;23.30;47.48
29215;BME280;16252;49.816;7.964;2023-07-31T07:45:18;99674.81;;;24.01;47.44
29215;BME280;16252;49.816;7.964;2023-07-31T07:47:43;99549.03;;;23.23;47.53
29215;BME280;16252;49.816;7.964;2023-07-31T07:50:08;99674.19;;;24.06;47.63
29215;BME280;16252;49.816;7.964;2023-07-31T07:52:34;99658.44;;;24.01;47.47
29215;BME280;16252;49.816;7.964;2023-07-31T07:54:59;99538.53;;;23.40;47.65
29215;BME280;16252;49.816;7.964;2023-07-31T07:57:25;99561.00;;;23.55;47.35
29215;BME280;16252;49.816;7.964;2023-07-31T07:59:50;99667.81;;;24.26;47.38
29215;BME280;16252;49.816;7.964;2023-07-31T08:02:16;99662.16;;;24.34;47.46
29215;BME280;16252;49.816;7.964;2023-07-31T08:04:41;99627.50;;;24.14;46.85
29215;BME280;16252;49.816;7.964;2023-07-31T08:07:06;99588.03;;;23.97;46.76
29215;BME280;16252;49.816;7.964;2023-07-31T08:09:32;99558.59;;;23.92;46.86
29215;BME280;16252;49.816;7.964;2023-07-31T08:11:57;99579.38;;;24.13;46.71
29215;BME280;16252;49.816;7.964;2023-07-31T08:14:27;99638.78;;;24.51;46.66
29215;BME280;16252;49.816;7.964;2023-07-31T08:16:52;99647.81;;;24.52;46.51
29215;BME280;16252;49.816;7.964;2023-07-31T08:19:17;99639.81;;;24.43;46.58
29215;BME280;16252;49.816;7.964;2023-07-31T08:21:43;99646.13;;;24.44;47.06
29215;BME280;16252;49.816;7.964;2023-07-31T08:24:08;99547.50;;;23.87;46.85
29215;BME280;16252;49.816;7.964;2023-07-31T08:26:33;99559.66;;;23.98;46.52
29215;BME280;16252;49.816;7.964;2023-07-31T08:28:58;99628.69;;;24.45;46.69
29215;BME280;16252;49.816;7.964;2023-07-31T08:31:24;99556.88;;;24.05;46.40
29215;BME280;16252;49.816;7.964;2023-07-31T08:33:49;99571.81;;;24.09;46.56
29215;BME280;16252;49.816;7.964;2023-07-31T08:36:14;99620.50;;;24.38;46.69
29215;BME280;16252;49.816;7.964;2023-07-31T08:38:40;99584.22;;;24.05;46.54
29215;BME280;16252;49.816;7.964;2023-07-31T08:41:05;99567.00;;;23.97;46.31
29215;BME280;16252;49.816;7.964;2023-07-31T08:43:31;99640.28;;;24.27;46.67
29215;BME280;16252;49.816;7.964;2023-07-31T08:45:57;99548.59;;;23.73;46.74
29215;BME280;16252;49.816;7.964;2023-07-31T08:48:23;99623.88;;;24.27;46.52
29215;BME280;16252;49.816;7.964;2023-07-31T08:50:51;99537.00;;;23.71;46.46
29215;BME280;16252;49.816;7.964;2023-07-31T08:53:16;99553.00;;;23.74;46.33
29215;BME280;16252;49.816;7.964;2023-07-31T08:55:42;99608.56;;;24.19;46.45
29215;BME280;16252;49.816;7.964;2023-07-31T08:58:09;99553.56;;;23.96;46.47
29215;BME280;16252;49.816;7.964;2023-07-31T09:00:35;99563.19;;;24.12;47.14
29215;BME280;16252;49.816;7.964;2023-07-31T09:03:22;99607.28;;;24.74;46.47
29215;BME280;16252;49.816;7.964;2023-07-31T09:05:48;99606.59;;;24.85;45.56
29215;BME280;16252;49.816;7.964;2023-07-31T09:08:18;99616.63;;;24.98;45.56
29215;BME280;16252;49.816;7.964;2023-07-31T09:10:45;99588.69;;;24.89;45.31
29215;BME280;16252;49.816;7.964;2023-07-31T09:13:11;99586.34;;;24.93;45.16
29215;BME280;16252;49.816;7.964;2023-07-31T09:15:37;99610.44;;;25.09;44.66
29215;BME280;16252;49.816;7.964;2023-07-31T09:18:03;99563.28;;;24.82;44.70
29215;BME280;16252;49.816;7.964;2023-07-31T09:20:30;99618.81;;;25.14;44.69
29215;BME280;16252;49.816;7.964;2023-07-31T09:22:56;99535.22;;;24.61;44.92
29215;BME280;16252;49.816;7.964;2023-07-31T09:25:27;99591.97;;;25.04;44.96
29215;BME280;16252;49.816;7.964;2023-07-31T09:28:00;99530.19;;;24.83;44.99
29215;BME280;16252;49.816;7.964;2023-07-31T09:30:26;99601.06;;;25.30;44.62
29215;BME280;16252;49.816;7.964;2023-07-31T09:33:00;99575.34;;;25.31;44.88
29215;BME280;16252;49.816;7.964;2023-07-31T09:35:31;99523.91;;;25.08;44.54
29215;BME280;16252;49.816;7.964;2023-07-31T09:37:58;99574.00;;;25.40;44.54
29215;BME280;16252;49.816;7.964;2023-07-31T09:40:34;99591.31;;;25.59;44.47
29215;BME280;16252;49.816;7.964;2023-07-31T09:43:02;99467.69;;;24.87;44.16
29215;BME280;16252;49.816;7.964;2023-07-31T09:45:28;99453.06;;;24.75;43.98
29215;BME280;16252;49.816;7.964;2023-07-31T09:47:55;99582.06;;;25.60;44.26
29215;BME280;16252;49.816;7.964;2023-07-31T09:50:22;99514.22;;;25.12;43.88
29215;BME280;16252;49.816;7.964;2023-07-31T09:52:48;99553.41;;;25.38;44.00
29215;BME280;16252;49.816;7.964;2023-07-31T09:55:13;99499.28;;;25.08;43.92
29215;BME280;16252;49.816;7.964;2023-07-31T09:57:44;99567.00;;;25.44;43.67
29215;BME280;16252;49.816;7.964;2023-07-31T10:00:11;99568.47;;;25.47;43.60
29215;BME280;16252;49.816;7.964;2023-07-31T10:02:37;99496.66;;;24.95;43.86
29215;BME280;16252;49.816;7.964;2023-07-31T10:05:04;99572.09;;;25.41;44.05
29215;BME280;16252;49.816;7.964;2023-07-31T10:07:31;99559.53;;;25.33;43.94
29215;BME280;16252;49.816;7.964;2023-07-31T10:10:00;99469.19;;;24.83;43.51
29215;BME280;16252;49.816;7.964;2023-07-31T10:12:26;99479.47;;;24.87;43.84
29215;BME280;16252;49.816;7.964;2023-07-31T10:14:56;99493.97;;;24.88;43.83
29215;BME280;16252;49.816;7.964;2023-07-31T10:17:22;99496.44;;;24.96;43.67
29215;BME280;16252;49.816;7.964;2023-07-31T10:19:49;99485.38;;;24.84;43.64
29215;BME280;16252;49.816;7.964;2023-07-31T10:22:15;99457.25;;;24.77;43.78
29215;BME280;16252;49.816;7.964;2023-07-31T10:24:45;99470.81;;;24.91;43.96
29215;BME280;16252;49.816;7.964;2023-07-31T10:27:10;99565.16;;;25.63;44.10
29215;BME280;16252;49.816;7.964;2023-07-31T10:29:40;99484.78;;;25.07;43.60
29215;BME280;16252;49.816;7.964;2023-07-31T10:32:10;99556.47;;;25.48;43.72
29215;BME280;16252;49.816;7.964;2023-07-31T10:34:39;99556.47;;;25.48;43.44
29215;BME280;16252;49.816;7.964;2023-07-31T10:37:30;99555.16;;;25.50;44.05
29215;BME280;16252;49.816;7.964;2023-07-31T10:40:12;99548.53;;;25.40;43.64
29215;BME280;16252;49.816;7.964;2023-07-31T10:42:51;99532.00;;;25.28;44.00
29215;BME280;16252;49.816;7.964;2023-07-31T10:45:37;99550.66;;;25.38;44.13
29215;BME280;16252;49.816;7.964;2023-07-31T10:48:07;99525.53;;;25.16;43.81
29215;BME280;16252;49.816;7.964;2023-07-31T10:50:38;99499.75;;;25.05;44.03
29215;BME280;16252;49.816;7.964;2023-07-31T10:53:22;99530.19;;;25.40;43.74
29215;BME280;16252;49.816;7.964;2023-07-31T10:55:48;99507.97;;;25.30;44.11
29215;BME280;16252;49.816;7.964;2023-07-31T10:58:18;99511.50;;;25.37;43.69
29215;BME280;16252;49.816;7.964;2023-07-31T11:00:45;99517.03;;;25.49;43.71
29215;BME280;16252;49.816;7.964;2023-07-31T11:03:14;99523.44;;;25.61;43.67
29215;BME280;16252;49.816;7.964;2023-07-31T11:05:59;99526.34;;;25.66;43.75
29215;BME280;16252;49.816;7.964;2023-07-31T11:08:26;99518.91;;;25.73;43.80
29215;BME280;16252;49.816;7.964;2023-07-31T11:11:09;99517.94;;;25.86;43.96
29215;BME280;16252;49.816;7.964;2023-07-31T11:13:42;99516.44;;;25.90;43.53
29215;BME280;16252;49.816;7.964;2023-07-31T11:16:08;99497.91;;;25.86;43.57
29215;BME280;16252;49.816;7.964;2023-07-31T11:18:34;99489.03;;;25.90;43.58
29215;BME280;16252;49.816;7.964;2023-07-31T11:21:00;99488.84;;;26.04;43.45
29215;BME280;16252;49.816;7.964;2023-07-31T11:23:25;99477.69;;;26.17;43.42
29215;BME280;16252;49.816;7.964;2023-07-31T11:25:50;99498.88;;;26.40;43.13
29215;BME280;16252;49.816;7.964;2023-07-31T11:28:17;99495.81;;;26.48;42.54
29215;BME280;16252;49.816;7.964;2023-07-31T11:30:45;99491.75;;;26.51;42.38
29215;BME280;16252;49.816;7.964;2023-07-31T11:33:12;99489.94;;;26.63;42.24
29215;BME280;16252;49.816;7.964;2023-07-31T11:35:48;99496.88;;;26.77;41.96
29215;BME280;16252;49.816;7.964;2023-07-31T11:38:25;99496.06;;;26.77;41.88
29215;BME280;16252;49.816;7.964;2023-07-31T11:40:52;99505.88;;;26.85;41.91
29215;BME280;16252;49.816;7.964;2023-07-31T11:43:18;99500.59;;;26.83;41.51
29215;BME280;16252;49.816;7.964;2023-07-31T11:45:48;99507.44;;;26.92;41.37
29215;BME280;16252;49.816;7.964;2023-07-31T11:50:50;99475.72;;;26.66;41.17
29215;BME280;16252;49.816;7.964;2023-07-31T11:53:19;99481.94;;;26.62;41.18
29215;BME280;16252;49.816;7.964;2023-07-31T11:55:46;99501.94;;;26.92;42.20
29215;BME280;16252;49.816;7.964;2023-07-31T11:58:13;99505.69;;;26.68;41.23
29215;BME280;16252;49.816;7.964;2023-07-31T12:00:40;99490.94;;;26.50;41.41
29215;BME280;16252;49.816;7.964;2023-07-31T12:03:06;99491.63;;;26.46;41.47
29215;BME280;16252;49.816;7.964;2023-07-31T12:05:31;99487.41;;;26.31;41.81
29215;BME280;16252;49.816;7.964;2023-07-31T12:07:56;99473.09;;;26.29;41.63
29215;BME280;16252;49.816;7.964;2023-07-31T12:10:30;99487.91;;;26.40;41.66
29215;BME280;16252;49.816;7.964;2023-07-31T12:13:00;99474.63;;;26.25;41.79
29215;BME280;16252;49.816;7.964;2023-07-31T12:15:32;99491.06;;;26.25;41.63
29215;BME280;16252;49.816;7.964;2023-07-31T12:17:57;99475.56;;;26.19;41.78
29215;BME280;16252;49.816;7.964;2023-07-31T12:20:22;99469.81;;;26.09;41.57
29215;BME280;16252;49.816;7.964;2023-07-31T12:22:48;99457.00;;;26.03;41.83
29215;BME280;16252;49.816;7.964;2023-07-31T12:25:16;99447.13;;;26.02;42.08
29215;BME280;16252;49.816;7.964;2023-07-31T12:27:44;99481.75;;;26.14;41.97
29215;BME280;16252;49.816;7.964;2023-07-31T12:30:32;99475.34;;;26.21;42.17
29215;BME280;16252;49.816;7.964;2023-07-31T12:33:06;99469.25;;;26.19;42.12
29215;BME280;16252;49.816;7.964;2023-07-31T12:35:36;99450.59;;;26.09;42.04
29215;BME280;16252;49.816;7.964;2023-07-31T12:38:02;99460.88;;;26.13;42.25
29215;BME280;16252;49.816;7.964;2023-07-31T12:40:27;99473.66;;;26.20;42.00
29215;BME280;16252;49.816;7.964;2023-07-31T12:42:53;99445.28;;;26.14;41.94
29215;BME280;16252;49.816;7.964;2023-07-31T12:45:18;99441.91;;;26.12;42.01
29215;BME280;16252;49.816;7.964;2023-07-31T12:47:43;99464.66;;;26.31;41.84
29215;BME280;16252;49.816;7.964;2023-07-31T12:50:09;99468.44;;;26.30;42.25
29215;BME280;16252;49.816;7.964;2023-07-31T12:52:34;99456.03;;;26.27;41.94
29215;BME280;16252;49.816;7.964;2023-07-31T12:54:59;99453.22;;;26.34;42.28
29215;BME280;16252;49.816;7.964;2023-07-31T12:57:25;99455.13;;;26.33;42.17
29215;BME280;16252;49.816;7.964;2023-07-31T12:59:50;99428.72;;;26.21;41.77
29215;BME280;16252;49.816;7.964;2023-07-31T13:02:15;99439.84;;;26.26;41.72